createdAt,value
2018-05-23T00:00:44.225Z,23.5
2018-05-23T00:01:34.302Z,23.5
2018-05-23T00:02:24.357Z,23.5
2018-05-23T00:03:14.417Z,23.5
2018-05-23T00:04:04.494Z,23.5
2018-05-23T00:04:54.545Z,23.5
2018-05-23T00:05:44.623Z,23.5
2018-05-23T00:06:34.397Z,23.5
2018-05-23T00:07:24.473Z,23.5
2018-05-23T00:08:14.838Z,23.5
2018-05-23T00:09:04.886Z,23.5
2018-05-23T00:11:56.076Z,23.5
2018-05-23T00:12:05.543Z,23.4
2018-05-23T00:12:55.593Z,23.4
2018-05-23T00:13:45.658Z,23.4
2018-05-23T00:14:35.463Z,23.4
2018-05-23T00:15:25.825Z,23.4
2018-05-23T00:16:15.579Z,23.4
2018-05-23T00:17:05.648Z,23.4
2018-05-23T00:17:55.996Z,23.4
2018-05-23T00:18:46.052Z,23.4
2018-05-23T00:19:36.103Z,23.4
2018-05-23T00:20:25.620Z,23.4
2018-05-23T00:21:15.673Z,23.4
2018-05-23T00:22:06.297Z,23.4
2018-05-23T00:22:56.373Z,23.4
2018-05-23T00:23:46.425Z,23.4
2018-05-23T00:24:36.199Z,23.4
2018-05-23T00:25:26.555Z,23.4
2018-05-23T00:26:16.357Z,23.4
2018-05-23T00:27:06.398Z,23.4
2018-05-23T00:27:56.731Z,23.4
2018-05-23T00:28:46.807Z,23.4
2018-05-23T00:29:36.884Z,23.4
2018-05-23T00:30:26.959Z,23.4
2018-05-23T00:31:17.003Z,23.4
2018-05-23T00:32:07.090Z,23.4
2018-05-23T00:32:56.854Z,23.4
2018-05-23T00:33:46.914Z,23.4
2018-05-23T00:34:36.977Z,23.4
2018-05-23T00:35:27.049Z,23.4
2018-05-23T00:36:17.371Z,23.4
2018-05-23T00:37:07.451Z,23.4
2018-05-23T00:37:57.231Z,23.4
2018-05-23T00:38:47.574Z,23.3
2018-05-23T00:39:37.356Z,23.4
2018-05-23T00:40:27.703Z,23.3
2018-05-23T00:41:17.858Z,23.4
2018-05-23T00:42:07.837Z,23.3
2018-05-23T00:42:57.919Z,23.4
2018-05-23T00:43:47.947Z,23.4
2018-05-23T00:44:38.023Z,23.3
2018-05-23T00:45:28.089Z,23.3
2018-05-23T00:46:18.178Z,23.3
2018-05-23T00:47:07.932Z,23.3
2018-05-23T00:47:58.007Z,23.3
2018-05-23T00:48:48.331Z,23.3
2018-05-23T00:49:38.403Z,23.3
2018-05-23T00:50:28.481Z,23.3
2018-05-23T00:51:17.956Z,23.3
2018-05-23T00:52:08.583Z,23.3
2018-05-23T00:52:57.898Z,23.3
2018-05-23T00:53:48.731Z,23.3
2018-05-23T00:54:38.827Z,23.3
2018-05-23T00:55:28.858Z,23.3
2018-05-23T00:56:18.913Z,23.3
2018-05-23T00:57:08.969Z,23.3
2018-05-23T00:57:59.040Z,23.3
2018-05-23T00:58:48.824Z,23.3
2018-05-23T00:59:39.169Z,23.3
2018-05-23T01:00:29.234Z,23.3
2018-05-23T01:01:19.298Z,23.3
2018-05-23T01:02:09.079Z,23.3
2018-05-23T01:02:59.422Z,23.3
2018-05-23T01:03:49.493Z,23.3
2018-05-23T01:04:39.545Z,23.3
2018-05-23T01:05:29.602Z,23.3
2018-05-23T01:06:19.695Z,23.3
2018-05-23T01:07:09.744Z,23.3
2018-05-23T01:07:59.809Z,23.3
2018-05-23T01:08:49.860Z,23.3
2018-05-23T01:09:39.927Z,23.3
2018-05-23T01:10:29.991Z,23.3
2018-05-23T01:11:20.051Z,23.3
2018-05-23T01:12:10.122Z,23.3
2018-05-23T01:13:00.201Z,23.2
2018-05-23T01:13:50.014Z,23.2
2018-05-23T01:14:40.357Z,23.2
2018-05-23T01:15:30.391Z,23.2
2018-05-23T01:16:20.460Z,23.2
2018-05-23T01:17:10.577Z,23.2
2018-05-23T01:18:00.306Z,23.2
2018-05-23T01:18:50.354Z,23.2
2018-05-23T01:19:40.696Z,23.2
2018-05-23T01:20:30.489Z,23.2
2018-05-23T01:21:20.532Z,23.2
2018-05-23T01:22:10.893Z,23.2
2018-05-23T01:23:00.951Z,23.2
2018-05-23T01:23:50.738Z,23.2
2018-05-23T01:24:41.077Z,23.2
2018-05-23T01:25:30.871Z,23.2
2018-05-23T01:26:21.199Z,23.2
2018-05-23T01:27:11.294Z,23.1
2018-05-23T01:28:01.061Z,23.1
2018-05-23T01:28:51.396Z,23.1
2018-05-23T01:29:41.461Z,23.1
2018-05-23T01:30:31.522Z,23.1
2018-05-23T01:31:21.321Z,23.1
2018-05-23T01:32:11.651Z,23.1
2018-05-23T01:33:01.717Z,23.1
2018-05-23T01:33:51.514Z,23.2
2018-05-23T01:34:41.571Z,23.1
2018-05-23T01:35:31.918Z,23.1
2018-05-23T01:36:21.703Z,23.1
2018-05-23T01:37:12.116Z,23.1
2018-05-23T01:38:02.098Z,23.1
2018-05-23T01:38:51.880Z,23.1
2018-05-23T01:39:42.242Z,23.1
2018-05-23T01:40:32.287Z,23.1
2018-05-23T01:41:22.078Z,23.1
2018-05-23T01:42:12.407Z,23.1
2018-05-23T01:43:02.212Z,23.1
2018-05-23T01:43:52.532Z,23.1
2018-05-23T01:44:42.330Z,23.1
2018-05-23T01:45:32.661Z,23.1
2018-05-23T01:46:22.767Z,23.1
2018-05-23T01:47:12.798Z,23.1
2018-05-23T01:48:02.857Z,23.1
2018-05-23T01:48:52.912Z,23.1
2018-05-23T01:49:42.977Z,23.1
2018-05-23T01:50:32.472Z,23.1
2018-05-23T01:51:23.125Z,23.1
2018-05-23T01:52:13.161Z,23.1
2018-05-23T01:53:03.216Z,23.1
2018-05-23T01:53:53.291Z,23.1
2018-05-23T01:54:43.359Z,23.1
2018-05-23T01:55:33.416Z,23.1
2018-05-23T01:56:23.484Z,23.1
2018-05-23T01:57:13.541Z,23.1
2018-05-23T01:58:03.340Z,23.1
2018-05-23T01:58:53.682Z,23.1
2018-05-23T01:59:43.736Z,23.1
2018-05-23T02:00:33.799Z,23.1
2018-05-23T02:01:23.869Z,23.1
2018-05-23T02:02:13.923Z,23.1
2018-05-23T02:03:03.703Z,23.1
2018-05-23T02:03:54.068Z,23.1
2018-05-23T02:04:44.117Z,23.1
2018-05-23T02:05:33.893Z,23.1
2018-05-23T02:06:24.260Z,23.1
2018-05-23T02:07:14.029Z,23.1
2018-05-23T02:08:04.359Z,23.1
2018-05-23T02:08:54.153Z,23.1
2018-05-23T02:09:44.495Z,23.1
2018-05-23T02:10:34.291Z,23.1
2018-05-23T02:11:24.343Z,23.1
2018-05-23T02:12:14.676Z,23.1
2018-05-23T02:13:04.839Z,23.1
2018-05-23T02:13:54.267Z,23.1
2018-05-23T02:14:44.868Z,23.1
2018-05-23T02:15:35.037Z,23.1
2018-05-23T02:16:24.995Z,23.1
2018-05-23T02:17:14.792Z,23.1
2018-05-23T02:18:04.850Z,23.1
2018-05-23T02:18:54.903Z,23.1
2018-05-23T02:19:44.966Z,23.1
2018-05-23T02:20:35.311Z,23.1
2018-05-23T02:21:25.398Z,23.1
2018-05-23T02:22:15.449Z,23.1
2018-05-23T02:23:05.508Z,23.1
2018-05-23T02:23:55.294Z,23.1
2018-05-23T02:24:45.351Z,23.1
2018-05-23T02:25:35.689Z,23.1
2018-05-23T02:26:25.770Z,23.1
2018-05-23T02:27:15.806Z,23.1
2018-05-23T02:28:05.876Z,23.1
2018-05-23T02:28:55.954Z,23.1
2018-05-23T02:29:46.021Z,23.1
2018-05-23T02:30:36.077Z,23.1
2018-05-23T02:31:26.170Z,23.1
2018-05-23T02:32:16.216Z,23.1
2018-05-23T02:33:05.995Z,23.1
2018-05-23T02:33:56.351Z,23.1
2018-05-23T02:34:46.130Z,23.1
2018-05-23T02:35:36.181Z,23.1
2018-05-23T02:36:26.636Z,23.1
2018-05-23T02:37:16.312Z,23.1
2018-05-23T02:38:06.367Z,23.1
2018-05-23T02:38:56.437Z,23.1
2018-05-23T02:39:46.790Z,23.1
2018-05-23T02:40:36.844Z,23.1
2018-05-23T02:41:26.891Z,23.1
2018-05-23T02:42:16.694Z,23.1
2018-05-23T02:43:07.037Z,23.1
2018-05-23T02:43:57.076Z,23.1
2018-05-23T02:44:47.154Z,23.1
2018-05-23T02:45:37.216Z,23.1
2018-05-23T02:46:27.004Z,23.1
2018-05-23T02:47:17.320Z,23.1
2018-05-23T02:48:07.403Z,23.1
2018-05-23T02:48:57.469Z,23.1
2018-05-23T02:49:47.249Z,23.1
2018-05-23T02:50:37.588Z,23.1
2018-05-23T02:51:27.661Z,23.1
2018-05-23T02:52:17.717Z,23.1
2018-05-23T02:53:07.517Z,23.1
2018-05-23T02:53:57.843Z,23.1
2018-05-23T02:54:47.907Z,23.1
2018-05-23T02:55:38.081Z,23.1
2018-05-23T02:56:28.046Z,23.1
2018-05-23T02:57:18.114Z,23.1
2018-05-23T02:58:08.162Z,23
2018-05-23T02:58:58.223Z,23.1
2018-05-23T02:59:48.019Z,23.1
2018-05-23T03:00:38.373Z,23
2018-05-23T03:01:28.152Z,23
2018-05-23T03:02:18.483Z,23
2018-05-23T03:03:08.890Z,23
2018-05-23T03:03:58.615Z,23.1
2018-05-23T03:04:48.673Z,23
2018-05-23T03:05:38.738Z,23.1
2018-05-23T03:06:28.842Z,23
2018-05-23T03:07:18.857Z,23.1
2018-05-23T03:08:08.640Z,23
2018-05-23T03:08:58.698Z,23
2018-05-23T03:09:49.065Z,23
2018-05-23T03:10:39.127Z,23
2018-05-23T03:11:29.182Z,23
2018-05-23T03:12:19.241Z,23
2018-05-23T03:13:09.302Z,23
2018-05-23T03:13:59.363Z,23
2018-05-23T03:14:49.445Z,23
2018-05-23T03:15:39.505Z,23
2018-05-23T03:16:29.559Z,23
2018-05-23T03:17:19.646Z,23
2018-05-23T03:18:09.781Z,23
2018-05-23T03:18:59.746Z,23
2018-05-23T03:19:49.549Z,23
2018-05-23T03:20:39.886Z,22.9
2018-05-23T03:21:29.937Z,22.9
2018-05-23T03:22:19.735Z,22.9
2018-05-23T03:23:10.073Z,23
2018-05-23T03:24:00.134Z,23
2018-05-23T03:24:50.192Z,23
2018-05-23T03:25:40.353Z,23
2018-05-23T03:26:30.340Z,23
2018-05-23T03:27:20.108Z,23
2018-05-23T03:28:10.455Z,23
2018-05-23T03:29:00.585Z,23
2018-05-23T03:29:50.317Z,23
2018-05-23T03:30:40.638Z,23
2018-05-23T03:31:30.717Z,23
2018-05-23T03:32:20.778Z,23
2018-05-23T03:33:10.829Z,23
2018-05-23T03:34:00.887Z,23
2018-05-23T03:34:50.681Z,23.1
2018-05-23T03:35:41.014Z,23.1
2018-05-23T03:36:31.081Z,23
2018-05-23T03:37:21.171Z,23.1
2018-05-23T03:38:11.222Z,23.1
2018-05-23T03:39:01.022Z,23.1
2018-05-23T03:39:51.351Z,23.1
2018-05-23T03:40:41.134Z,23.1
2018-05-23T03:41:31.468Z,23.1
2018-05-23T03:42:21.531Z,23.1
2018-05-23T03:43:11.588Z,23.1
2018-05-23T03:44:01.746Z,23.1
2018-05-23T03:44:51.432Z,23.1
2018-05-23T03:45:41.794Z,23.1
2018-05-23T03:46:31.857Z,23.1
2018-05-23T03:47:21.945Z,23.1
2018-05-23T03:48:11.700Z,23.1
2018-05-23T03:49:01.756Z,23.1
2018-05-23T03:49:51.829Z,23.1
2018-05-23T03:50:41.883Z,23.1
2018-05-23T03:51:32.229Z,23.1
2018-05-23T03:52:22.280Z,23.1
2018-05-23T03:53:12.163Z,23.1
2018-05-23T03:54:02.433Z,23.1
2018-05-23T03:54:52.482Z,23.1
2018-05-23T03:55:42.269Z,23.1
2018-05-23T03:56:32.622Z,23.1
2018-05-23T03:57:22.107Z,23.1
2018-05-23T03:58:12.470Z,23.1
2018-05-23T03:59:02.826Z,23.1
2018-05-23T03:59:52.310Z,23.1
2018-05-23T04:00:42.925Z,23.1
2018-05-23T04:01:32.725Z,23.1
2018-05-23T04:02:22.776Z,23.1
2018-05-23T04:03:13.136Z,23.1
2018-05-23T04:04:02.901Z,23.1
2018-05-23T04:04:53.596Z,23.1
2018-05-23T04:05:43.333Z,23.1
2018-05-23T04:06:33.381Z,23.1
2018-05-23T04:07:23.156Z,23.1
2018-05-23T04:08:13.499Z,23.1
2018-05-23T04:09:03.575Z,23.1
2018-05-23T04:09:53.625Z,23.1
2018-05-23T04:10:43.768Z,23.1
2018-05-23T04:11:33.479Z,23.1
2018-05-23T04:12:23.810Z,23.1
2018-05-23T04:13:13.885Z,23.1
2018-05-23T04:14:03.664Z,23.1
2018-05-23T04:14:53.750Z,23.1
2018-05-23T04:15:44.069Z,23.1
2018-05-23T04:16:34.147Z,23.1
2018-05-23T04:17:24.221Z,23.1
2018-05-23T04:18:14.254Z,23.1
2018-05-23T04:19:04.345Z,23.1
2018-05-23T04:19:54.390Z,23.1
2018-05-23T04:20:44.460Z,23.1
2018-05-23T04:21:34.247Z,23.1
2018-05-23T04:22:24.578Z,23.1
2018-05-23T04:23:14.645Z,23.1
2018-05-23T04:24:05.032Z,23.1
2018-05-23T04:24:55.031Z,23.1
2018-05-23T04:25:44.841Z,23.1
2018-05-23T04:26:34.913Z,23.1
2018-05-23T04:27:24.971Z,23.1
2018-05-23T04:28:15.029Z,23.1
2018-05-23T04:29:05.098Z,23.1
2018-05-23T04:29:55.167Z,23.1
2018-05-23T04:30:45.229Z,23.1
2018-05-23T04:31:35.291Z,23.1
2018-05-23T04:32:25.368Z,23.1
2018-05-23T04:33:15.401Z,23.1
2018-05-23T04:34:05.202Z,23.1
2018-05-23T04:34:55.264Z,23.1
2018-05-23T04:35:45.595Z,23.1
2018-05-23T04:36:35.679Z,23.1
2018-05-23T04:37:25.724Z,23.1
2018-05-23T04:38:15.780Z,23.1
2018-05-23T04:39:05.595Z,23.1
2018-05-23T04:39:55.633Z,23.1
2018-05-23T04:40:45.723Z,23.1
2018-05-23T04:41:36.042Z,23.1
2018-05-23T04:42:26.108Z,23.1
2018-05-23T04:43:15.632Z,23.1
2018-05-23T04:44:05.960Z,23.1
2018-05-23T04:44:56.030Z,23.1
2018-05-23T04:45:46.377Z,23.1
2018-05-23T04:46:36.175Z,23.1
2018-05-23T04:47:26.495Z,23.1
2018-05-23T04:48:16.277Z,23.1
2018-05-23T04:49:06.631Z,23.1
2018-05-23T04:49:56.685Z,23.1
2018-05-23T04:50:46.750Z,23.1
2018-05-23T04:51:36.823Z,23.1
2018-05-23T04:52:26.882Z,23.1
2018-05-23T04:53:16.672Z,23.1
2018-05-23T04:54:07.018Z,23.1
2018-05-23T04:54:57.162Z,23.1
2018-05-23T04:55:47.141Z,23.1
2018-05-23T04:56:36.920Z,23.1
2018-05-23T04:57:27.267Z,23.1
2018-05-23T04:58:17.335Z,23.1
2018-05-23T04:59:07.385Z,23.1
2018-05-23T04:59:57.482Z,23.1
2018-05-23T05:00:47.504Z,23.1
2018-05-23T05:01:37.574Z,23.1
2018-05-23T05:02:27.384Z,23.1
2018-05-23T05:03:17.722Z,23.1
2018-05-23T05:04:07.779Z,23.1
2018-05-23T05:04:57.834Z,23.1
2018-05-23T05:05:47.904Z,23.1
2018-05-23T05:06:37.685Z,23.1
2018-05-23T05:07:27.745Z,23.1
2018-05-23T05:08:17.818Z,23.1
2018-05-23T05:09:08.159Z,23.1
2018-05-23T05:09:58.489Z,23.1
2018-05-23T05:10:48.283Z,23.1
2018-05-23T05:11:38.332Z,23.1
2018-05-23T05:12:28.121Z,23.1
2018-05-23T05:13:18.453Z,23.1
2018-05-23T05:14:08.234Z,23.1
2018-05-23T05:14:58.588Z,23.1
2018-05-23T05:15:48.645Z,23.1
2018-05-23T05:16:38.715Z,23.1
2018-05-23T05:17:28.774Z,23.1
2018-05-23T05:18:18.857Z,23.1
2018-05-23T05:19:08.921Z,23.1
2018-05-23T05:19:58.704Z,23.1
2018-05-23T05:20:49.030Z,23.1
2018-05-23T05:21:39.090Z,23.2
2018-05-23T05:22:29.159Z,23.1
2018-05-23T05:23:19.217Z,23.1
2018-05-23T05:24:09.312Z,23.1
2018-05-23T05:24:59.637Z,23.1
2018-05-23T05:25:49.406Z,23.1
2018-05-23T05:26:39.474Z,23.1
2018-05-23T05:27:29.563Z,23.1
2018-05-23T05:28:19.621Z,23.2
2018-05-23T05:29:09.663Z,23.1
2018-05-23T05:29:59.725Z,23.1
2018-05-23T05:30:49.786Z,23.2
2018-05-23T05:31:39.365Z,23.1
2018-05-23T05:32:29.921Z,23.1
2018-05-23T05:33:19.979Z,23.1
2018-05-23T05:34:10.043Z,23.1
2018-05-23T05:35:00.152Z,23.1
2018-05-23T05:35:50.186Z,23.1
2018-05-23T05:36:39.696Z,23.1
2018-05-23T05:37:30.304Z,23.1
2018-05-23T05:38:20.368Z,23.1
2018-05-23T05:39:10.420Z,23.1
2018-05-23T05:40:00.588Z,23.2
2018-05-23T05:40:50.001Z,23.1
2018-05-23T05:41:40.647Z,23.2
2018-05-23T05:42:30.700Z,23.2
2018-05-23T05:43:20.847Z,23.1
2018-05-23T05:44:10.810Z,23.1
2018-05-23T05:45:00.888Z,23.1
2018-05-23T05:45:50.942Z,23.1
2018-05-23T05:46:40.998Z,23.2
2018-05-23T05:47:31.065Z,23.1
2018-05-23T05:48:21.132Z,23.1
2018-05-23T05:49:10.915Z,23.1
2018-05-23T05:50:01.254Z,23.2
2018-05-23T05:50:51.321Z,23.1
2018-05-23T05:51:41.104Z,23.1
2018-05-23T05:52:31.449Z,23.1
2018-05-23T05:53:21.264Z,23.2
2018-05-23T05:54:11.572Z,23.2
2018-05-23T05:55:01.374Z,23.1
2018-05-23T05:55:51.702Z,23.1
2018-05-23T05:56:41.762Z,23.2
2018-05-23T05:57:31.836Z,23.1
2018-05-23T05:58:21.889Z,23.1
2018-05-23T05:59:11.949Z,23.1
2018-05-23T06:00:02.020Z,23.1
2018-05-23T06:00:52.095Z,23.1
2018-05-23T06:01:41.866Z,23.1
2018-05-23T06:02:32.212Z,23.1
2018-05-23T06:03:22.285Z,23.1
2018-05-23T06:04:11.796Z,23.1
2018-05-23T06:05:02.413Z,23.1
2018-05-23T06:05:52.484Z,23.2
2018-05-23T06:06:42.247Z,23.1
2018-05-23T06:07:32.334Z,23.1
2018-05-23T06:08:22.655Z,23.1
2018-05-23T06:09:12.724Z,23.1
2018-05-23T06:10:02.728Z,23.1
2018-05-23T06:10:52.856Z,23.1
2018-05-23T06:11:42.662Z,23.1
2018-05-23T06:12:32.996Z,23.1
2018-05-23T06:13:23.050Z,23.1
2018-05-23T06:14:13.113Z,23.1
2018-05-23T06:15:03.259Z,23.1
2018-05-23T06:15:53.325Z,23.1
2018-05-23T06:16:43.320Z,23.1
2018-05-23T06:17:33.362Z,23.1
2018-05-23T06:18:23.432Z,23.1
2018-05-23T06:19:13.486Z,23.1
2018-05-23T06:20:03.554Z,23.1
2018-05-23T06:20:53.052Z,23.3
2018-05-23T06:21:43.675Z,23.6
2018-05-23T06:22:33.750Z,38.6
2018-05-23T06:23:23.528Z,47.4
2018-05-23T06:24:13.865Z,48.3
2018-05-23T06:25:03.940Z,47.9
2018-05-23T06:25:54.049Z,47.5
2018-05-23T06:26:44.069Z,47
2018-05-23T06:27:33.944Z,46.4
2018-05-23T06:28:24.238Z,45.9
2018-05-23T06:29:13.981Z,45.4
2018-05-23T06:30:04.037Z,44.9
2018-05-23T06:30:54.119Z,44.4
2018-05-23T06:31:44.459Z,43.9
2018-05-23T06:32:33.962Z,43.4
2018-05-23T06:33:24.320Z,42.9
2018-05-23T06:34:14.653Z,42.4
2018-05-23T06:35:04.704Z,41.9
2018-05-23T06:35:54.773Z,41.5
2018-05-23T06:36:44.824Z,41.1
2018-05-23T06:37:34.893Z,40.6
2018-05-23T06:38:24.965Z,40.2
2018-05-23T06:39:15.030Z,39.8
2018-05-23T06:40:05.094Z,39.4
2018-05-23T06:40:55.150Z,39.1
2018-05-23T06:41:45.223Z,38.7
2018-05-23T06:42:35.295Z,38.3
2018-05-23T06:43:25.515Z,38
2018-05-23T06:44:15.413Z,39.7
2018-05-23T06:45:05.494Z,42.4
2018-05-23T06:45:55.559Z,51
2018-05-23T06:46:45.073Z,52.5
2018-05-23T06:47:35.670Z,51
2018-05-23T06:48:25.746Z,48.3
2018-05-23T06:49:15.527Z,46.3
2018-05-23T06:50:06.423Z,45.4
2018-05-23T06:50:55.941Z,44.8
2018-05-23T06:51:46.009Z,44.3
2018-05-23T06:52:36.113Z,43.9
2018-05-23T06:53:26.287Z,43.4
2018-05-23T06:54:16.184Z,42.9
2018-05-23T06:55:05.987Z,42.5
2018-05-23T06:55:56.320Z,42.1
2018-05-23T06:56:46.397Z,41.7
2018-05-23T06:57:36.453Z,41.4
2018-05-23T06:58:26.227Z,41.9
2018-05-23T06:59:16.565Z,48.8
2018-05-23T07:00:08.283Z,53.8
2018-05-23T07:00:58.071Z,54.6
2018-05-23T07:01:48.409Z,54
2018-05-23T07:02:38.185Z,51.8
2018-05-23T07:03:26.623Z,49.2
2018-05-23T07:04:16.703Z,48.2
2018-05-23T07:05:07.031Z,49
2018-05-23T07:05:57.319Z,50.6
2018-05-23T07:07:38.560Z,52.6
2018-05-23T07:09:19.312Z,51.8
2018-05-23T07:10:09.074Z,51.1
2018-05-23T07:10:57.477Z,50.9
2018-05-23T07:11:47.537Z,51.2
2018-05-23T07:12:37.600Z,51.6
2018-05-23T07:13:29.376Z,52.1
2018-05-23T07:14:19.644Z,52.3
2018-05-23T07:15:09.556Z,52.3
2018-05-23T07:15:59.240Z,52.1
2018-05-23T07:16:49.576Z,52
2018-05-23T07:17:39.915Z,52.1
2018-05-23T07:18:30.028Z,52.1
2018-05-23T07:19:20.060Z,52.3
2018-05-23T07:20:09.573Z,52.4
2018-05-23T07:21:00.219Z,52.6
2018-05-23T07:21:50.056Z,52.6
2018-05-23T07:22:40.030Z,52.6
2018-05-23T07:23:30.093Z,52.6
2018-05-23T07:24:20.438Z,52.6
2018-05-23T07:25:10.494Z,52.6
2018-05-23T07:26:01.091Z,52.6
2018-05-23T07:26:50.630Z,52.7
2018-05-23T07:27:40.142Z,52.8
2018-05-23T07:28:30.749Z,52.8
2018-05-23T07:29:20.558Z,52.9
2018-05-23T07:30:10.874Z,52.9
2018-05-23T07:31:00.963Z,53
2018-05-23T07:31:51.685Z,53.1
2018-05-23T07:32:41.103Z,53.1
2018-05-23T07:33:31.149Z,53.3
2018-05-23T07:34:21.004Z,53.4
2018-05-23T07:35:11.282Z,53.4
2018-05-23T07:36:01.324Z,53.6
2018-05-23T07:36:51.390Z,53.8
2018-05-23T07:37:41.468Z,53.9
2018-05-23T07:38:31.885Z,54.1
2018-05-23T07:39:21.607Z,54.2
2018-05-23T07:40:11.414Z,54.3
2018-05-23T07:41:01.728Z,54.6
2018-05-23T07:41:51.842Z,54.9
2018-05-23T07:42:41.846Z,55.3
2018-05-23T07:43:31.091Z,55.5
2018-05-23T07:44:21.701Z,55.8
2018-05-23T07:45:11.561Z,55.9
2018-05-23T07:46:02.060Z,56
2018-05-23T07:46:52.167Z,56.1
2018-05-23T07:47:41.704Z,56.3
2018-05-23T07:48:32.040Z,56.4
2018-05-23T07:49:21.892Z,56.6
2018-05-23T07:50:12.452Z,56.8
2018-05-23T07:51:02.236Z,56.9
2018-05-23T07:51:52.275Z,57.1
2018-05-23T07:52:42.058Z,57.3
2018-05-23T07:53:32.704Z,57.6
2018-05-23T07:55:12.822Z,57.9
2018-05-23T07:56:02.600Z,58.3
2018-05-23T07:56:52.680Z,58.5
2018-05-23T07:57:43.028Z,58.8
2018-05-23T07:58:32.516Z,58.9
2018-05-23T07:59:22.863Z,59.1
2018-05-23T08:00:12.648Z,59.1
2018-05-23T08:01:03.018Z,59.1
2018-05-23T08:01:53.343Z,58.9
2018-05-23T08:02:43.401Z,58.8
2018-05-23T08:03:33.457Z,58.8
2018-05-23T08:04:23.553Z,58.8
2018-05-23T08:05:13.651Z,58.9
2018-05-23T08:06:03.403Z,59
2018-05-23T08:06:53.735Z,59.2
2018-05-23T08:07:43.821Z,59.5
2018-05-23T08:08:33.873Z,59.8
2018-05-23T08:09:23.910Z,60
2018-05-23T08:10:13.702Z,60.2
2018-05-23T08:11:04.058Z,60.4
2018-05-23T08:11:54.097Z,60.6
2018-05-23T08:12:43.907Z,60.8
2018-05-23T08:13:34.245Z,60.9
2018-05-23T08:14:24.300Z,60.9
2018-05-23T08:15:14.105Z,61
2018-05-23T08:16:04.432Z,61
2018-05-23T08:16:53.988Z,61.1
2018-05-23T08:17:44.578Z,61.4
2018-05-23T08:18:34.364Z,61.7
2018-05-23T08:19:24.179Z,62.1
2018-05-23T08:20:14.825Z,62.5
2018-05-23T08:21:04.841Z,62.8
2018-05-23T08:21:54.880Z,62.5
2018-05-23T08:22:44.990Z,62.2
2018-05-23T08:23:35.030Z,61.8
2018-05-23T08:24:24.917Z,61.5
2018-05-23T08:25:14.864Z,61.3
2018-05-23T08:26:04.956Z,61.1
2018-05-23T08:26:55.004Z,60.7
2018-05-23T08:27:45.331Z,60.3
2018-05-23T08:28:35.408Z,59.9
2018-05-23T08:29:24.932Z,59.6
2018-05-23T08:30:15.631Z,59.4
2018-05-23T08:31:05.604Z,59.4
2018-05-23T08:31:55.673Z,59.3
2018-05-23T08:32:45.443Z,59.3
2018-05-23T08:33:35.227Z,59.1
2018-05-23T08:34:25.555Z,59.2
2018-05-23T08:35:15.916Z,59.2
2018-05-23T08:36:05.717Z,59
2018-05-23T08:36:56.048Z,58.5
2018-05-23T08:37:45.823Z,57.9
2018-05-23T08:38:35.882Z,57.4
2018-05-23T08:39:25.745Z,57
2018-05-23T08:40:16.302Z,56.6
2018-05-23T08:41:06.085Z,56.4
2018-05-23T08:41:56.155Z,56.1
2018-05-23T08:42:46.205Z,55.8
2018-05-23T08:43:36.082Z,55.4
2018-05-23T08:44:26.619Z,55.1
2018-05-23T08:45:16.806Z,54.9
2018-05-23T08:46:07.413Z,54.6
2018-05-23T08:46:56.562Z,54.5
2018-05-23T08:47:46.881Z,54.4
2018-05-23T08:48:36.936Z,54.3
2018-05-23T08:49:26.189Z,54.3
2018-05-23T08:50:17.083Z,54.2
2018-05-23T08:51:07.150Z,54.3
2018-05-23T08:51:57.243Z,54.5
2018-05-23T08:52:47.008Z,54.8
2018-05-23T08:53:37.152Z,55
2018-05-23T08:54:26.936Z,55.3
2018-05-23T08:55:17.003Z,55.7
2018-05-23T08:56:07.538Z,55.9
2018-05-23T08:56:57.592Z,56.3
2018-05-23T08:57:46.894Z,56.5
2018-05-23T08:58:37.179Z,56.6
2018-05-23T08:59:27.809Z,56.6
2018-05-23T09:00:17.847Z,56.6
2018-05-23T09:01:07.928Z,56.6
2018-05-23T09:01:57.701Z,57
2018-05-23T09:02:47.577Z,57.4
2018-05-23T09:03:38.108Z,57.9
2018-05-23T09:04:28.199Z,58.3
2018-05-23T09:06:08.298Z,58.5
2018-05-23T09:06:58.080Z,58.4
2018-05-23T09:07:48.187Z,58.4
2018-05-23T09:08:38.235Z,58.4
2018-05-23T09:09:28.573Z,58.3
2018-05-23T09:10:18.624Z,58.3
2018-05-23T09:11:08.717Z,58.2
2018-05-23T09:11:58.195Z,58.3
2018-05-23T09:12:48.286Z,58.2
2018-05-23T09:13:38.353Z,58.1
2018-05-23T09:14:28.689Z,58.1
2018-05-23T09:15:18.182Z,58
2018-05-23T09:16:08.682Z,57.9
2018-05-23T09:16:58.401Z,57.9
2018-05-23T09:17:48.474Z,58.2
2018-05-23T09:19:29.074Z,58.9
2018-05-23T09:20:19.427Z,59.4
2018-05-23T09:21:09.478Z,59.6
2018-05-23T09:21:59.271Z,59.6
2018-05-23T09:22:49.591Z,59.7
2018-05-23T09:23:39.680Z,59.6
2018-05-23T09:24:29.745Z,59.6
2018-05-23T09:25:19.906Z,59.6
2018-05-23T09:26:09.850Z,59.4
2018-05-23T09:26:59.657Z,59.1
2018-05-23T09:27:49.447Z,58.8
2018-05-23T09:28:40.040Z,58.4
2018-05-23T09:29:30.216Z,58
2018-05-23T09:30:19.908Z,57.8
2018-05-23T09:31:09.414Z,57.6
2018-05-23T09:32:00.344Z,57.4
2018-05-23T09:32:50.362Z,57.3
2018-05-23T09:33:40.425Z,56.9
2018-05-23T09:34:30.514Z,56.6
2018-05-23T09:35:20.622Z,56.2
2018-05-23T09:36:10.623Z,55.8
2018-05-23T09:37:00.440Z,55.5
2018-05-23T09:37:50.226Z,55.3
2018-05-23T09:38:40.814Z,55.2
2018-05-23T09:39:30.904Z,55
2018-05-23T09:40:20.487Z,54.8
2018-05-23T09:41:09.106Z,54.7
2018-05-23T09:41:58.892Z,54.6
2018-05-23T09:42:49.221Z,54.4
2018-05-23T09:43:39.022Z,54.4
2018-05-23T09:44:29.349Z,54.4
2018-05-23T09:45:19.417Z,54.6
2018-05-23T09:46:09.483Z,54.8
2018-05-23T09:46:59.284Z,55.1
2018-05-23T09:47:49.611Z,55.3
2018-05-23T09:48:39.701Z,55.5
2018-05-23T09:49:29.466Z,55.6
2018-05-23T09:50:19.813Z,55.7
2018-05-23T09:51:09.920Z,55.9
2018-05-23T09:51:59.659Z,56.2
2018-05-23T09:52:49.994Z,56.4
2018-05-23T09:53:40.069Z,56.6
2018-05-23T09:54:30.137Z,57
2018-05-23T09:55:20.196Z,57.6
2018-05-23T09:56:09.983Z,57.9
2018-05-23T09:57:00.048Z,57.9
2018-05-23T09:57:52.328Z,57.8
2018-05-23T09:58:42.388Z,58
2018-05-23T09:59:32.438Z,58.4
2018-05-23T10:00:21.943Z,58.8
2018-05-23T10:01:12.305Z,59.1
2018-05-23T10:02:02.738Z,59.4
2018-05-23T10:02:52.674Z,59.6
2018-05-23T10:03:42.489Z,59.9
2018-05-23T10:04:32.537Z,60.3
2018-05-23T10:05:22.872Z,60.9
2018-05-23T10:06:12.676Z,61.3
2018-05-23T10:07:02.462Z,61.9
2018-05-23T10:07:52.906Z,62.4
2018-05-23T10:08:42.878Z,62.9
2018-05-23T10:09:32.670Z,63.3
2018-05-23T10:10:23.290Z,63.7
2018-05-23T10:11:13.345Z,64.1
2018-05-23T10:12:03.411Z,64.4
2018-05-23T10:12:53.452Z,64.7
2018-05-23T10:13:43.274Z,65
2018-05-23T10:14:33.597Z,65.3
2018-05-23T10:15:23.654Z,65.7
2018-05-23T10:16:13.709Z,65.9
2018-05-23T10:17:03.802Z,66.2
2018-05-23T10:17:53.867Z,66.4
2018-05-23T10:18:43.466Z,66.7
2018-05-23T10:19:33.989Z,66.8
2018-05-23T10:20:24.049Z,66.9
2018-05-23T10:21:14.128Z,67
2018-05-23T10:22:04.188Z,67.3
2018-05-23T10:22:53.713Z,67.4
2018-05-23T10:23:44.035Z,67.5
2018-05-23T10:24:34.444Z,67.7
2018-05-23T10:25:24.436Z,67.7
2018-05-23T10:26:14.587Z,67.8
2018-05-23T10:27:04.573Z,67.9
2018-05-23T10:27:54.623Z,68.1
2018-05-23T10:28:43.860Z,68.1
2018-05-23T10:29:34.482Z,68.1
2018-05-23T10:30:24.848Z,68.1
2018-05-23T10:31:14.065Z,68.2
2018-05-23T10:32:04.697Z,68.3
2018-05-23T10:32:54.209Z,68.3
2018-05-23T10:33:45.097Z,68.3
2018-05-23T10:34:34.618Z,68.3
2018-05-23T10:35:25.230Z,68.4
2018-05-23T10:36:15.035Z,68.4
2018-05-23T10:37:05.389Z,68.4
2018-05-23T10:37:55.421Z,68.3
2018-05-23T10:38:45.482Z,68.3
2018-05-23T10:39:35.546Z,68.3
2018-05-23T10:40:25.632Z,68.4
2018-05-23T10:41:14.833Z,68.6
2018-05-23T10:42:05.478Z,68.7
2018-05-23T10:42:55.830Z,68.8
2018-05-23T10:43:45.599Z,68.7
2018-05-23T10:44:35.670Z,68.6
2018-05-23T10:45:26.012Z,68.7
2018-05-23T10:46:16.624Z,68.7
2018-05-23T10:47:05.864Z,68.8
2018-05-23T10:47:55.639Z,68.9
2018-05-23T10:48:45.998Z,68.9
2018-05-23T10:49:36.342Z,68.9
2018-05-23T10:50:26.112Z,68.9
2018-05-23T10:51:15.600Z,69
2018-05-23T10:52:06.846Z,69
2018-05-23T10:52:56.298Z,68.9
2018-05-23T10:53:46.646Z,68.9
2018-05-23T10:54:36.466Z,69
2018-05-23T10:55:26.217Z,68.9
2018-05-23T10:56:16.586Z,68.8
2018-05-23T10:57:07.403Z,68.8
2018-05-23T10:57:56.739Z,68.8
2018-05-23T10:58:47.095Z,68.9
2018-05-23T10:59:37.123Z,69.1
2018-05-23T11:00:26.926Z,69.1
2018-05-23T11:01:16.963Z,69.2
2018-05-23T11:02:06.832Z,69.2
2018-05-23T11:02:57.429Z,69.1
2018-05-23T11:03:47.461Z,69.1
2018-05-23T11:04:36.936Z,69.2
2018-05-23T11:05:27.590Z,69.3
2018-05-23T11:06:17.360Z,69.3
2018-05-23T11:07:07.427Z,69.3
2018-05-23T11:07:57.862Z,69.4
2018-05-23T11:08:47.835Z,69.4
2018-05-23T11:09:37.898Z,69.6
2018-05-23T11:10:27.980Z,69.6
2018-05-23T11:11:18.021Z,69.6
2018-05-23T11:12:07.842Z,69.7
2018-05-23T11:12:58.174Z,69.8
2018-05-23T11:13:47.677Z,69.8
2018-05-23T11:14:38.009Z,69.8
2018-05-23T11:15:27.508Z,69.8